Currently 52°F in Simi Valley, California, USA
52°F
67°F / 51°F
calm
0.00"
Wednesday, January 23, 2019 7:06 PM PST

Simi Valley, California Weather Summary
Last 36 Hours

Temperature Winds Hourly Humidity Dewpoint
Time Report Norm Report Norm Max Gusts Precip. Rpt. Norm Rpt. Norm Pressure
1Wed 07:06 PM  51.6°F  58°F  calm  4 mph  none  0.00"  51%  52%  33°F  40°F  30.16"
Wed 07:00 PM  51.9°F  58°F  calm  4 mph  6 mph  0.00"  50%  52%  33°F  40°F  30.16"
Wed 06:00 PM  57.4°F  60°F  calm  4 mph  9 mph  0.00"  40%  50%  32°F  41°F  30.15"
Wed 05:00 PM  61.8°F  63°F  calm  5 mph  12 mph  0.00"  33%  46%  31°F  41°F  30.15"
Wed 04:00 PM  65.2°F  65°F  5 mph W  5 mph  11 mph  0.00"  28%  43%  30°F  41°F  30.16"
Wed 03:00 PM  66.3°F  66°F  5 mph SW  7 mph  15 mph  0.00"  28%  41%  31°F  41°F  30.18"
Wed 02:00 PM  66.4°F  67°F  8 mph W  5 mph  16 mph  0.00"  29%  41%  32°F  41°F  30.20"
Wed 01:00 PM  67.1°F  66°F  7 mph W  6 mph  14 mph  0.00"  25%  41%  29°F  41°F  30.23"
2Wed 12:46 PM  67.3°F  66°F  7 mph W  6 mph  13 mph  ----  24%  41%  27°F  41°F  30.24"
Wed 12:00 PM  66.4°F  65°F  7 mph NW  6 mph  15 mph  0.00"  22%  43%  25°F  41°F  30.27"
Wed 11:00 AM  65.1°F  63°F  calm  6 mph  6 mph  0.00"  27%  46%  29°F  41°F  30.32"
Wed 10:00 AM  61.5°F  61°F  2 mph SE  6 mph  10 mph  0.00"  30%  50%  28°F  41°F  30.33"
Wed 09:00 AM  57.5°F  57°F  6 mph S  5 mph  15 mph  0.00"  28%  55%  23°F  41°F  30.34"
Wed 08:00 AM  54.0°F  53°F  3 mph S  4 mph  21 mph  0.00"  29%  58%  21°F  39°F  30.32"
Wed 07:00 AM  52.6°F  53°F  6 mph SE  4 mph  16 mph  0.00"  29%  58%  20°F  38°F  30.32"
Wed 06:00 AM  52.9°F  53°F  7 mph E  4 mph  19 mph  0.00"  28%  58%  19°F  38°F  30.32"
Wed 05:00 AM  52.4°F  53°F  6 mph SE  4 mph  15 mph  0.00"  30%  58%  20°F  38°F  30.33"
Wed 04:00 AM  52.2°F  53°F  7 mph NW  4 mph  22 mph  0.00"  29%  58%  20°F  38°F  30.32"
Wed 03:00 AM  51.6°F  53°F  6 mph W  4 mph  14 mph  0.00"  29%  57%  19°F  38°F  30.33"
3Wed 02:48 AM  51.2°F  53°F  7 mph W  4 mph  9 mph  ----  30%  57%  20°F  38°F  30.34"
Wed 02:00 AM  52.7°F  54°F  8 mph S  4 mph  20 mph  0.00"  29%  57%  20°F  38°F  30.35"
Wed 01:00 AM  51.5°F  54°F  calm  3 mph  12 mph  0.00"  32%  57%  21°F  39°F  30.35"
Wed 12:00 AM  51.8°F  54°F  4 mph E  4 mph  12 mph  0.00"  32%  57%  21°F  39°F  30.35"
Tue 11:00 PM  50.3°F  55°F  calm  4 mph  10 mph  0.00"  34%  57%  22°F  39°F  30.35"
Tue 10:00 PM  52.3°F  55°F  1 mph SE  4 mph  11 mph  0.00"  32%  57%  22°F  40°F  30.35"
Tue 09:00 PM  51.1°F  56°F  calm  4 mph  8 mph  0.00"  34%  56%  22°F  40°F  30.34"
Tue 08:00 PM  52.1°F  57°F  2 mph W  3 mph  8 mph  0.00"  34%  55%  24°F  40°F  30.32"
Tue 07:00 PM  54.5°F  58°F  2 mph NE  3 mph  10 mph  0.00"  32%  54%  24°F  41°F  30.30"
Tue 06:00 PM  56.4°F  60°F  6 mph E  3 mph  14 mph  0.00"  29%  52%  23°F  42°F  30.29"
Tue 05:00 PM  59.2°F  63°F  5 mph NE  4 mph  22 mph  0.00"  25%  48%  22°F  42°F  30.28"
Tue 04:00 PM  61.8°F  65°F  12 mph NE  5 mph  21 mph  0.00"  25%  44%  24°F  42°F  30.26"
Tue 03:00 PM  61.8°F  67°F  9 mph E  6 mph  25 mph  0.00"  26%  42%  25°F  42°F  30.25"
Tue 02:00 PM  60.5°F  67°F  10 mph E  5 mph  26 mph  0.00"  25%  42%  23°F  42°F  30.27"
Tue 01:00 PM  60.8°F  66°F  9 mph SE  6 mph  22 mph  0.00"  27%  42%  25°F  42°F  30.29"
Tue 12:00 PM  60.6°F  66°F  6 mph NE  6 mph  33 mph  0.00"  26%  44%  24°F  42°F  30.29"
Tue 11:00 AM  58.5°F  64°F  12 mph E  6 mph  27 mph  0.00"  32%  47%  27°F  42°F  30.27"
Tue 10:00 AM  56.4°F  61°F  5 mph NE  5 mph  25 mph  0.00"  40%  51%  32°F  42°F  30.30"
Tue 09:00 AM  53.0°F  58°F  5 mph E  5 mph  14 mph  0.00"  50%  55%  34°F  41°F  30.30"
Tue 08:00 AM  47.1°F  54°F  calm  4 mph  10 mph  0.00"  63%  59%  35°F  39°F  30.29"

  1. Current weather data. No green row appears if the current weather data is also the high or low for the current day.
  2. High temperature for the current day.
  3. Low temperature for the current day.

The Simi Valley, California weather pages are a service of WeatherCurrents.
Copyright ©Wed Jan 23 19:07:12 PST 2019  WeatherCurrents. All rights reserved. - Submit questions and comments - Privacy Policy

This page automatically refreshes every 10 minutes.